Latest Weather Observations for Dunalley

IDT60901

Issued at 3:35 am EST Friday 25 April 2014 (issued every 10 minutes, with the page automatically refreshed every 10 minutes)

About weather observations | Map of Hobart area stations | Latest observations for Hobart area | Other Formats
Station Details ID: 094254 Name: DUNALLEY (STROUD POINT) Lat: -42.90 Lon: 147.79 Height: 12.43 m
Data from the previous 72 hours. | See also: Recent months at Dunalley
Date/Time
EST
Tmp

°C
App
Tmp
°C
Dew
Point
°C
Rel
Hum
%
Delta-T

°C
Wind Press
QNH
hPa
Press
MSL
hPa
Rain
since
9 am
mm
Dir
 
Spd
km/h
Gust
km/h
Spd
kts
Gust
kts
25/03:30am 8.4 3.7 0.9 59 3.0 NW 15 22 8 12 1017.6 - 1.0
25/03:00am 8.1 3.4 0.8 60 2.9 NW 15 22 8 12 1017.6 1017.6 1.0
25/02:30am 8.6 3.6 1.1 59 3.0 NW 17 26 9 14 1017.6 - 1.0
25/02:00am 8.4 3.4 1.1 60 3.0 NNW 17 24 9 13 1017.6 1017.6 1.0
25/01:30am 8.6 3.0 1.3 60 3.0 NW 20 32 11 17 1017.7 - 1.0
25/01:00am 8.4 2.8 1.3 61 2.9 NW 20 32 11 17 1017.8 1017.8 1.0
25/12:30am 8.6 3.2 1.5 61 2.9 WNW 19 28 10 15 1017.7 - 1.0
25/12:00am 8.4 3.4 1.6 62 2.8 NW 17 26 9 14 1017.5 1017.5 1.0
 
Date/Time
EST
Tmp

°C
App
Tmp
°C
Dew
Point
°C
Rel
Hum
%
Delta-T

°C
Wind Press
QNH
hPa
Press
MSL
hPa
Rain
since
9 am
mm
Dir
 
Spd
km/h
Gust
km/h
Spd
kts
Gust
kts
24/11:30pm 8.3 3.0 1.7 63 2.7 NW 19 30 10 16 1017.4 - 1.0
24/11:00pm 8.4 2.5 2.0 64 2.6 NW 22 30 12 16 1017.2 1017.2 1.0
24/10:30pm 8.3 3.8 1.9 64 2.6 NNW 15 20 8 11 1017.4 - 1.0
24/10:00pm 8.3 4.1 1.9 64 2.6 NNW 13 20 7 11 1017.1 1017.1 1.0
24/09:30pm 7.8 3.3 1.9 66 2.4 WNW 15 22 8 12 1016.6 - 1.0
24/09:00pm 8.6 4.5 2.0 63 2.7 NW 13 19 7 10 1016.3 1016.3 1.0
24/08:30pm 8.2 4.0 1.6 63 2.7 WNW 13 19 7 10 1015.6 - 1.0
24/08:00pm 10.2 2.4 4.8 69 2.4 WSW 35 43 19 23 1015.0 1015.0 1.0
24/07:30pm 9.9 0.5 4.3 68 2.5 WSW 43 52 23 28 1014.4 - 1.0
24/07:00pm 9.9 0.3 3.4 64 2.8 WSW 43 50 23 27 1014.6 1014.6 1.0
24/06:30pm 9.9 -0.6 3.4 64 2.8 W 48 57 26 31 1013.7 - 1.0
24/06:00pm 10.0 -0.4 4.0 66 2.6 W 48 59 26 32 1012.8 1012.8 1.0
24/05:30pm 10.2 0.5 3.9 65 2.8 WSW 44 54 24 29 1012.0 - 1.0
24/05:00pm 10.2 0.2 4.1 66 2.7 WSW 46 59 25 32 1011.4 1011.4 1.0
24/04:30pm 10.4 1.0 4.3 66 2.7 WSW 43 50 23 27 1011.0 - 1.0
24/04:00pm 10.6 0.0 2.9 59 3.3 W 48 63 26 34 1010.2 1010.2 1.0
24/03:30pm 11.2 2.2 4.7 64 2.9 WSW 41 50 22 27 1009.9 - 1.0
24/03:00pm 10.4 -0.9 3.4 62 3.1 W 52 61 28 33 1009.2 1009.2 1.0
24/02:30pm 10.1 -0.2 4.7 69 2.4 W 48 61 26 33 1008.8 - 1.0
24/02:10pm 10.2 -0.2 4.4 67 2.6 W 48 70 26 38 1008.3 - 1.0
24/02:00pm 10.1 1.1 4.3 67 2.6 W 41 52 22 28 1008.4 1008.4 1.0
24/01:32pm 8.8 0.1 5.9 82 1.3 W 41 61 22 33 1008.2 - 1.0
24/01:30pm 8.5 -0.9 5.6 82 1.3 W 44 61 24 33 1008.2 - 1.0
24/01:14pm 10.4 -0.1 3.9 64 2.9 W 48 85 26 46 1007.6 - 0.0
24/01:00pm 11.9 1.3 3.2 55 3.8 W 48 59 26 32 1007.0 1007.0 0.0
24/12:30pm 12.3 1.2 4.3 58 3.6 W 52 69 28 37 1006.3 - 0.0
24/12:09pm 11.9 2.4 3.9 58 3.6 W 43 65 23 35 1006.2 - 0.0
24/12:00pm 12.0 2.3 3.8 57 3.7 W 44 54 24 29 1006.2 1006.2 0.0
24/11:30am 11.5 0.6 3.8 59 3.4 W 50 63 27 34 1006.0 - 0.0
24/11:16am 12.0 2.0 4.2 59 3.5 W 46 67 25 36 1006.1 - 0.0
24/11:00am 11.3 1.0 4.5 63 3.1 W 48 56 26 30 1005.7 1005.7 0.0
24/10:30am 10.9 1.5 4.6 65 2.8 W 43 50 23 27 1004.9 - 0.0
24/10:07am 10.9 0.5 5.9 71 2.3 W 50 70 27 38 1004.5 - 0.0
24/10:00am 10.9 -0.8 5.4 69 2.5 W 56 70 30 38 1004.3 1004.3 0.0
24/09:52am 11.9 0.1 5.5 65 3.0 W 57 63 31 34 1004.0 - 0.0
24/09:42am 11.5 3.9 5.6 67 2.7 W 35 57 19 31 1003.6 - 0.0
24/09:30am 11.7 2.9 5.6 66 2.8 WSW 41 50 22 27 1003.3 - 0.0
24/09:00am 11.8 2.5 6.1 68 2.7 W 44 54 24 29 1002.9 1002.9 2.4
24/08:51am 11.6 2.8 5.5 66 2.8 W 41 48 22 26 1002.8 - 2.4
24/08:30am 11.0 6.1 6.7 75 2.0 W 22 30 12 16 1002.8 - 2.4
24/08:00am 10.0 5.2 5.8 75 1.9 W 20 33 11 18 1002.3 1002.3 2.4
24/07:30am 10.0 5.3 6.0 76 1.8 NW 20 30 11 16 1001.6 - 2.4
24/07:00am 9.8 5.4 6.7 81 1.5 WNW 19 28 10 15 1000.1 1000.1 2.4
24/06:30am 9.9 5.9 6.6 80 1.6 WNW 17 28 9 15 1000.1 - 2.4
24/06:00am 10.4 7.0 7.8 84 1.3 W 15 20 8 11 1001.0 1001.0 2.0
24/05:53am 10.8 7.8 7.9 82 1.4 W 13 19 7 10 1000.7 - 2.0
24/05:30am 11.8 4.6 9.0 83 1.4 WSW 37 44 20 24 1000.6 - 1.6
24/05:09am 11.9 3.4 9.1 83 1.4 WSW 44 50 24 27 1000.3 - 1.2
24/05:00am 12.6 5.6 9.8 83 1.4 W 37 50 20 27 1000.1 1000.1 1.0
24/04:59am 12.5 5.8 9.5 82 1.5 W 35 50 19 27 1000.1 - 0.8
24/04:30am 13.3 9.4 8.6 73 2.4 N 19 30 10 16 998.5 - 0.0
24/04:00am 13.2 7.9 8.3 72 2.5 NNE 26 39 14 21 998.6 998.6 0.0
24/03:30am 13.3 9.0 7.7 69 2.8 N 20 39 11 21 998.9 - 0.0
24/03:00am 13.7 8.2 7.7 67 3.0 N 26 37 14 20 999.5 999.5 0.0
24/02:30am 14.2 8.5 6.8 61 3.6 N 26 46 14 25 1000.1 - 0.0
24/02:00am 14.2 8.2 7.0 62 3.5 N 28 41 15 22 1000.9 1000.9 0.0
24/01:36am 14.5 8.5 7.1 61 3.6 N 28 54 15 29 1001.6 - 0.0
24/01:30am 14.7 9.4 7.0 60 3.8 NNW 24 54 13 29 1001.7 - 0.0
24/01:00am 13.9 10.4 7.0 63 3.4 N 15 24 8 13 1002.6 1002.6 0.0
24/12:30am 13.6 12.2 7.2 65 3.1 NNE 4 7 2 4 1003.3 - 0.0
24/12:00am 13.4 10.3 7.4 67 2.9 N 13 24 7 13 1003.8 1003.8 0.0
 
Date/Time
EST
Tmp

°C
App
Tmp
°C
Dew
Point
°C
Rel
Hum
%
Delta-T

°C
Wind Press
QNH
hPa
Press
MSL
hPa
Rain
since
9 am
mm
Dir
 
Spd
km/h
Gust
km/h
Spd
kts
Gust
kts
23/11:30pm 12.5 8.9 8.4 76 2.0 NE 17 20 9 11 1004.2 - 0.0
23/11:00pm 12.3 9.6 7.4 72 2.4 N 11 17 6 9 1005.0 1005.0 0.0
23/10:30pm 13.2 10.0 7.0 66 3.0 N 13 28 7 15 1005.6 - 0.0
23/10:00pm 13.5 10.8 7.3 66 3.0 N 11 19 6 10 1006.1 1006.1 0.0
23/09:30pm 13.4 10.4 7.6 68 2.8 N 13 22 7 12 1006.5 - 0.0
23/09:00pm 13.0 10.8 7.9 71 2.5 NNE 9 13 5 7 1006.7 1006.7 0.0
23/08:30pm 13.5 9.8 7.9 69 2.8 NNE 17 20 9 11 1006.9 - 0.0
23/08:00pm 13.8 9.7 8.0 68 2.9 NNE 19 24 10 13 1007.3 1007.3 0.0
23/07:30pm 13.8 10.7 7.3 65 3.2 N 13 20 7 11 1007.4 - 0.0
23/07:00pm 13.9 10.7 7.0 63 3.4 N 13 19 7 10 1007.6 1007.6 0.0
23/06:30pm 14.0 11.1 6.4 60 3.7 N 11 20 6 11 1007.9 - 0.0
23/06:00pm 14.2 11.4 6.8 61 3.6 NNW 11 19 6 10 1007.9 1007.9 0.0
23/05:30pm 13.2 10.8 6.8 65 3.1 NNW 9 11 5 6 1007.9 - 0.0
23/05:00pm 15.2 14.0 8.2 63 3.5 NNW 4 6 2 3 1008.2 1008.2 0.0
23/04:30pm 15.7 13.7 8.7 63 3.6 NNW 9 11 5 6 1008.3 - 0.0
23/04:00pm 16.7 14.6 5.9 49 5.2 NW 6 7 3 4 1008.8 1008.8 0.0
23/03:30pm 16.8 14.0 5.1 46 5.6 NW 9 15 5 8 1009.0 - 0.0
23/03:00pm 16.8 14.6 5.4 47 5.5 NNW 6 7 3 4 1009.3 1009.3 0.0
23/02:30pm 16.8 14.4 5.4 47 5.5 N 7 13 4 7 1009.4 - 0.0
23/02:00pm 17.1 13.6 5.4 46 5.6 N 13 19 7 10 1010.0 1010.0 0.0
23/01:30pm 16.9 14.1 5.2 46 5.6 N 9 17 5 9 1010.4 - 0.0
23/01:00pm 16.7 14.1 5.9 49 5.2 N 9 15 5 8 1010.7 1010.7 0.0
23/12:30pm 17.0 13.2 4.0 42 6.1 N 13 22 7 12 1011.1 - 0.0
23/12:00pm 16.6 12.1 4.3 44 5.8 NW 17 24 9 13 1011.6 1011.6 0.0
23/11:30am 16.3 13.4 4.7 46 5.5 NW 9 15 5 8 1012.1 - 0.0
23/11:00am 16.2 13.5 5.5 49 5.1 N 9 15 5 8 1012.4 1012.4 0.0
23/10:30am 15.4 13.3 5.9 53 4.6 N 6 13 3 7 1012.8 - 0.0
23/10:00am 15.2 12.6 6.2 55 4.3 N 9 20 5 11 1013.4 1013.4 0.0
23/09:30am 14.2 11.5 5.8 57 4.0 N 9 15 5 8 1013.9 - 0.0
23/09:00am 14.2 11.5 5.8 57 4.0 NNW 9 17 5 9 1014.0 1014.0 0.0
23/08:30am 13.7 10.7 6.1 60 3.6 N 11 17 6 9 1014.0 - 0.0
23/08:00am 12.7 10.7 6.3 65 3.0 N 6 11 3 6 1013.9 1013.9 0.0
23/07:30am 11.3 8.6 5.4 67 2.7 NNW 9 13 5 7 1014.0 - 0.0
23/07:00am 10.6 7.4 5.2 69 2.5 NNW 11 15 6 8 1013.8 1013.8 0.0
23/06:30am 11.0 7.4 5.1 67 2.7 NNW 13 15 7 8 1013.8 - 0.0
23/06:00am 11.0 7.4 5.1 67 2.7 NNW 13 17 7 9 1013.8 1013.8 0.0
23/05:30am 11.4 7.9 5.3 66 2.8 NNW 13 19 7 10 1013.8 - 0.0
23/05:00am 11.1 8.7 5.4 68 2.6 NNW 7 15 4 8 1013.7 1013.7 0.0
23/04:30am 11.0 7.8 5.3 68 2.6 NNW 11 15 6 8 1013.6 - 0.0
23/04:00am 10.8 7.9 4.9 67 2.7 NW 9 15 5 8 1013.5 1013.5 0.0
23/03:30am 11.5 8.0 5.4 66 2.8 NNW 13 19 7 10 1013.3 - 0.0
23/03:00am 10.4 6.8 5.0 69 2.4 NNW 13 19 7 10 1013.5 1013.5 0.0
23/02:30am 11.6 7.7 5.3 65 2.9 NW 15 22 8 12 1013.5 - 0.0
23/02:00am 11.2 7.2 5.1 66 2.8 NNW 15 24 8 13 1013.6 1013.6 0.0
23/01:30am 11.9 8.3 5.1 63 3.1 NNW 13 20 7 11 1013.5 - 0.0
23/01:00am 12.0 8.2 5.6 65 3.0 NNW 15 22 8 12 1013.4 1013.4 0.0
23/12:30am 12.3 9.1 5.2 62 3.3 NW 11 19 6 10 1013.4 - 0.0
23/12:00am 12.5 8.5 5.0 60 3.5 NW 15 22 8 12 1013.3 1013.3 0.0
 
Date/Time
EST
Tmp

°C
App
Tmp
°C
Dew
Point
°C
Rel
Hum
%
Delta-T

°C
Wind Press
QNH
hPa
Press
MSL
hPa
Rain
since
9 am
mm
Dir
 
Spd
km/h
Gust
km/h
Spd
kts
Gust
kts
22/11:30pm 12.3 8.2 4.3 58 3.6 NW 15 20 8 11 1013.2 - 0.0
22/11:00pm 12.5 8.3 4.0 56 3.8 WNW 15 22 8 12 1013.1 1013.1 0.0
22/10:30pm 12.3 8.1 3.8 56 3.8 WNW 15 20 8 11 1013.1 - 0.0
22/10:00pm 11.9 7.8 4.6 61 3.3 NW 15 20 8 11 1013.0 1013.0 0.0
22/09:30pm 12.4 8.5 5.3 62 3.3 WNW 15 19 8 10 1012.6 - 0.0
22/09:00pm 12.8 9.5 6.4 65 3.0 W 13 19 7 10 1012.2 1012.2 0.0
22/08:30pm 13.7 9.1 5.8 59 3.7 WNW 19 28 10 15 1011.7 - 0.0
22/08:00pm 14.3 11.1 4.9 53 4.4 WNW 11 19 6 10 1011.6 1011.6 0.0
22/07:30pm 14.4 11.8 4.1 50 4.7 WNW 7 17 4 9 1011.2 - 0.0
22/07:00pm 14.6 9.8 4.9 52 4.5 W 19 28 10 15 1010.6 1010.6 0.0
22/06:30pm 14.2 11.6 4.2 51 4.6 WNW 7 13 4 7 1010.3 - 0.0
22/06:00pm 13.9 11.1 3.1 48 4.8 WNW 7 13 4 7 1009.8 1009.8 0.0
22/05:30pm 14.5 7.7 3.3 47 5.1 W 28 41 15 22 1009.2 - 0.0
22/05:00pm 15.2 9.6 3.7 46 5.3 W 22 33 12 18 1008.8 1008.8 0.0
22/04:30pm 16.0 9.8 4.4 46 5.4 W 26 37 14 20 1008.7 - 0.0
22/04:00pm 16.6 9.6 4.3 44 5.8 W 30 39 16 21 1008.3 1008.3 0.0
22/03:30pm 16.8 9.4 4.2 43 5.9 W 32 44 17 24 1008.1 - 0.0
22/03:00pm 17.6 11.1 4.9 43 6.1 W 28 41 15 22 1008.0 1008.0 0.0
22/02:30pm 17.5 10.1 6.7 49 5.4 W 35 43 19 23 1007.4 - 0.0
22/02:00pm 17.5 11.9 10.1 62 3.9 WSW 30 37 16 20 1007.1 1007.1 0.0
22/01:30pm 17.7 13.9 11.3 66 3.5 WSW 22 28 12 15 1006.9 - 0.0
22/01:00pm 18.0 15.9 13.5 75 2.6 SW 17 20 9 11 1006.7 1006.7 0.0
22/12:37pm 18.0 12.2 9.6 58 4.4 W 30 48 16 26 1006.0 - 0.0
22/12:30pm 18.0 14.1 9.6 58 4.4 WSW 20 28 11 15 1006.1 - 0.0
22/12:00pm 20.8 17.6 8.4 45 6.5 W 15 28 8 15 1006.0 1006.0 0.0
22/11:30am 19.0 16.0 10.6 58 4.5 W 17 24 9 13 1006.1 - 0.0
22/11:00am 17.8 15.1 10.2 61 4.1 W 15 20 8 11 1005.9 1005.9 0.0
22/10:30am 17.3 15.7 11.6 69 3.1 W 11 15 6 8 1005.6 - 0.0
22/10:00am 17.4 15.8 10.3 63 3.8 WNW 9 17 5 9 1005.7 1005.7 0.0
22/09:30am 16.9 16.9 11.2 69 3.1 WNW 2 6 1 3 1005.5 - 0.0
22/09:00am 17.6 15.5 9.8 60 4.1 WNW 11 19 6 10 1005.4 1005.4 3.0
22/08:30am 17.7 13.8 9.6 59 4.3 WNW 20 30 11 16 1005.1 - 3.0
22/08:00am 17.8 14.2 9.7 59 4.3 WNW 19 33 10 18 1005.1 1005.1 3.0
22/07:30am 17.1 13.5 10.0 63 3.7 WNW 19 32 10 17 1004.3 - 3.0
22/07:00am 16.7 14.0 10.3 66 3.4 NW 15 22 8 12 1004.2 1004.2 3.0
22/06:30am 17.0 14.4 10.8 67 3.3 NNW 15 26 8 14 1003.9 - 3.0
22/06:00am 15.9 13.7 10.7 71 2.8 N 13 17 7 9 1003.5 1003.5 3.0
22/05:30am 15.9 13.7 10.9 72 2.7 N 13 19 7 10 1003.1 - 3.0
22/05:00am 15.0 12.5 11.2 78 2.0 N 15 20 8 11 1003.0 1003.0 3.0
22/04:30am 14.7 11.5 11.3 80 1.8 N 19 24 10 13 1002.9 - 3.0
22/04:00am 14.5 11.7 11.3 81 1.7 N 17 22 9 12 1002.7 1002.7 3.0

Latest Capital City Observations: Canberra | Sydney | Melbourne | Brisbane | Adelaide | Perth | Hobart | Darwin

Other Formats:

Comma delimited format used in spreadsheet applications
http://www.bom.gov.au/fwo/IDT60901/IDT60901.94951.axf

JavaScript Object Notation format (JSON) in row-major order
http://www.bom.gov.au/fwo/IDT60901/IDT60901.94951.json